createdAt,value
2018-07-05T00:00:31.006Z,8.10
2018-07-05T00:03:10.919Z,9.20
2018-07-05T00:05:50.638Z,8.53
2018-07-05T00:08:30.325Z,8.60
2018-07-05T00:11:10.459Z,8.10
2018-07-05T00:13:50.115Z,7.90
2018-07-05T00:16:29.762Z,8.00
2018-07-05T00:19:09.428Z,8.17
2018-07-05T00:21:52.324Z,7.47
2018-07-05T00:24:32.072Z,8.23
2018-07-05T00:27:11.783Z,7.30
2018-07-05T00:29:51.481Z,7.37
2018-07-05T00:32:31.228Z,8.77
2018-07-05T00:35:10.892Z,8.67
2018-07-05T00:37:50.656Z,7.77
2018-07-05T00:40:30.324Z,7.30
2018-07-05T00:43:10.105Z,7.53
2018-07-05T00:45:49.800Z,7.30
2018-07-05T00:48:29.381Z,7.70
2018-07-05T00:51:03.396Z,8.07
2018-07-05T00:53:43.121Z,7.50
2018-07-05T00:56:22.677Z,7.77
2018-07-05T00:59:02.288Z,8.50
2018-07-05T01:01:42.022Z,8.50
2018-07-05T01:04:21.900Z,9.70
2018-07-05T01:07:01.924Z,8.07
2018-07-05T01:09:41.432Z,9.17
2018-07-05T01:12:21.236Z,8.30
2018-07-05T01:15:01.081Z,8.77
2018-07-05T01:17:40.923Z,8.60
2018-07-05T01:20:20.602Z,10.17
2018-07-05T01:23:00.518Z,8.80
2018-07-05T01:25:40.138Z,9.37
2018-07-05T01:28:19.922Z,7.80
2018-07-05T01:30:59.580Z,8.27
2018-07-05T01:33:39.183Z,9.80
2018-07-05T01:36:19.018Z,8.63
2018-07-05T01:38:58.696Z,7.50
2018-07-05T01:41:38.311Z,8.20
2018-07-05T01:44:17.972Z,8.10
2018-07-05T01:46:57.644Z,8.23
2018-07-05T01:49:37.435Z,9.77
2018-07-05T01:52:17.236Z,8.80
2018-07-05T01:54:57.028Z,8.97
2018-07-05T01:57:37.385Z,8.77
2018-07-05T02:00:17.256Z,9.93
2018-07-05T02:02:56.849Z,8.37
2018-07-05T02:05:36.685Z,8.43
2018-07-05T02:08:16.336Z,8.50
2018-07-05T02:10:56.168Z,9.53
2018-07-05T02:13:35.925Z,10.27
2018-07-05T02:16:15.452Z,8.20
2018-07-05T02:18:55.261Z,8.53
2018-07-05T02:21:34.790Z,9.00
2018-07-05T02:24:09.054Z,8.97
2018-07-05T02:26:48.877Z,8.87
2018-07-05T02:29:28.681Z,8.60
2018-07-05T02:32:08.343Z,9.30
2018-07-05T02:34:48.163Z,9.47
2018-07-05T02:37:33.396Z,9.23
2018-07-05T02:40:13.247Z,10.13
2018-07-05T02:42:52.949Z,8.67
2018-07-05T02:45:32.567Z,9.00
2018-07-05T02:48:12.213Z,9.47
2018-07-05T02:50:51.895Z,9.70
2018-07-05T02:53:31.552Z,8.30
2018-07-05T02:56:11.423Z,9.80
2018-07-05T02:58:51.081Z,8.50
2018-07-05T03:01:30.539Z,8.57
2018-07-05T03:04:10.267Z,8.30
2018-07-05T03:06:50.073Z,8.90
2018-07-05T03:09:29.846Z,8.70
2018-07-05T03:12:09.595Z,9.10
2018-07-05T03:14:49.613Z,10.70
2018-07-05T03:17:29.332Z,9.77
2018-07-05T03:20:08.970Z,9.83
2018-07-05T03:22:48.736Z,11.40
2018-07-05T03:25:32.873Z,10.47
2018-07-05T03:28:12.555Z,9.90
2018-07-05T03:30:52.308Z,9.70
2018-07-05T03:33:31.908Z,10.10
2018-07-05T03:36:11.557Z,9.70
2018-07-05T03:38:51.380Z,9.07
2018-07-05T03:41:31.122Z,9.10
2018-07-05T03:44:11.916Z,9.40
2018-07-05T03:46:51.756Z,9.27
2018-07-05T03:49:31.449Z,9.37
2018-07-05T03:52:11.349Z,9.80
2018-07-05T03:54:51.089Z,9.30
2018-07-05T03:57:30.785Z,10.07
2018-07-05T04:00:10.744Z,10.70
2018-07-05T04:02:50.328Z,11.73
2018-07-05T04:05:29.911Z,10.50
2018-07-05T04:08:09.550Z,10.20
2018-07-05T04:10:49.421Z,10.00
2018-07-05T04:13:29.802Z,9.33
2018-07-05T04:16:09.373Z,8.53
2018-07-05T04:18:49.111Z,9.10
2018-07-05T04:21:28.890Z,10.47
2018-07-05T04:24:08.635Z,9.40
2018-07-05T04:26:52.080Z,9.20
2018-07-05T04:29:31.768Z,10.20
2018-07-05T04:32:11.360Z,8.60
2018-07-05T04:34:51.160Z,9.23
2018-07-05T04:37:31.056Z,9.90
2018-07-05T04:40:10.815Z,9.90
2018-07-05T04:42:50.338Z,8.50
2018-07-05T04:45:30.244Z,10.20
2018-07-05T04:48:10.061Z,10.60
2018-07-05T04:50:49.828Z,9.13
2018-07-05T04:53:29.807Z,10.80
2018-07-05T04:56:11.184Z,10.73
2018-07-05T04:58:50.818Z,11.37
2018-07-05T05:01:30.627Z,10.20
2018-07-05T05:04:11.164Z,10.43
2018-07-05T05:06:50.967Z,9.93
2018-07-05T05:09:30.626Z,11.53
2018-07-05T05:12:10.340Z,10.00
2018-07-05T05:14:50.202Z,11.10
2018-07-05T05:17:29.980Z,11.77
2018-07-05T05:20:09.486Z,11.87
2018-07-05T05:22:49.168Z,10.70
2018-07-05T05:25:28.804Z,10.20
2018-07-05T05:28:08.548Z,10.40
2018-07-05T05:30:48.269Z,10.27
2018-07-05T05:33:28.006Z,9.73
2018-07-05T05:36:08.088Z,10.80
2018-07-05T05:38:47.732Z,10.33
2018-07-05T05:41:27.584Z,9.40
2018-07-05T05:44:07.488Z,10.00
2018-07-05T05:46:47.256Z,8.63
2018-07-05T05:49:26.984Z,10.13
2018-07-05T05:52:08.082Z,9.47
2018-07-05T05:54:47.745Z,9.80
2018-07-05T05:57:27.565Z,8.90
2018-07-05T06:00:07.226Z,10.17
2018-07-05T06:02:47.019Z,9.87
2018-07-05T06:05:26.793Z,10.40
2018-07-05T06:08:06.551Z,10.00
2018-07-05T06:10:46.233Z,10.93
2018-07-05T06:13:25.780Z,9.93
2018-07-05T06:16:05.527Z,10.13
2018-07-05T06:18:45.217Z,10.93
2018-07-05T06:21:24.749Z,13.00
2018-07-05T06:24:04.541Z,11.27
2018-07-05T06:26:44.371Z,10.73
2018-07-05T06:29:24.217Z,11.30
2018-07-05T06:32:04.179Z,12.17
2018-07-05T06:34:43.899Z,9.93
2018-07-05T06:37:23.549Z,12.33
2018-07-05T06:40:03.228Z,11.20
2018-07-05T06:42:42.812Z,9.97
2018-07-05T06:45:22.681Z,10.23
2018-07-05T06:48:02.616Z,10.80
2018-07-05T06:50:42.443Z,10.33
2018-07-05T06:53:22.694Z,11.20
2018-07-05T06:56:02.387Z,10.30
2018-07-05T06:58:41.966Z,10.80
2018-07-05T07:01:21.712Z,11.10
2018-07-05T07:04:01.471Z,10.83
2018-07-05T07:06:41.216Z,10.20
2018-07-05T07:09:20.887Z,9.93
2018-07-05T07:12:00.673Z,9.40
2018-07-05T07:14:40.396Z,10.17
2018-07-05T07:17:20.061Z,13.23
2018-07-05T07:19:59.836Z,10.63
2018-07-05T07:22:39.506Z,11.10
2018-07-05T07:25:19.244Z,9.30
2018-07-05T07:27:59.069Z,10.60
2018-07-05T07:30:38.809Z,10.13
2018-07-05T07:33:18.452Z,10.70
2018-07-05T07:35:58.109Z,10.50
2018-07-05T07:38:37.977Z,10.30
2018-07-05T07:41:17.682Z,8.40
2018-07-05T07:43:45.109Z,7.80
2018-07-05T07:46:12.410Z,6.97
2018-07-05T07:48:39.997Z,9.27
2018-07-05T07:51:07.333Z,8.53
2018-07-05T07:53:34.658Z,9.30
2018-07-05T07:56:01.965Z,10.23
2018-07-05T07:58:29.246Z,10.27
2018-07-05T08:01:02.134Z,10.90
2018-07-05T08:03:29.475Z,14.70
2018-07-05T08:05:56.781Z,8.87
2018-07-05T08:08:24.121Z,11.87
2018-07-05T08:10:51.449Z,9.70
2018-07-05T08:13:18.780Z,9.50
2018-07-05T08:15:46.103Z,11.17
2018-07-05T08:18:13.427Z,14.30
2018-07-05T08:20:40.777Z,14.67
2018-07-05T08:23:08.061Z,13.07
2018-07-05T08:25:35.393Z,15.87
2018-07-05T08:28:02.701Z,13.43
2018-07-05T08:30:30.014Z,15.03
2018-07-05T08:32:57.364Z,13.90
2018-07-05T08:35:24.696Z,14.00
2018-07-05T08:37:52.137Z,15.50
2018-07-05T08:40:19.531Z,12.37
2018-07-05T08:42:46.845Z,11.57
2018-07-05T08:45:14.287Z,14.23
2018-07-05T08:47:41.667Z,12.63
2018-07-05T08:50:09.067Z,14.40
2018-07-05T08:52:36.347Z,16.80
2018-07-05T08:55:03.707Z,14.60
2018-07-05T08:57:31.007Z,16.20
2018-07-05T08:59:58.873Z,16.07
2018-07-05T09:02:26.345Z,14.03
2018-07-05T09:04:56.377Z,17.30
2018-07-05T09:07:23.697Z,15.87
2018-07-05T09:09:51.015Z,14.70
2018-07-05T09:12:18.311Z,14.00
2018-07-05T09:14:45.603Z,18.70
2018-07-05T09:17:12.932Z,19.53
2018-07-05T09:19:40.325Z,20.33
2018-07-05T09:22:07.640Z,16.60
2018-07-05T09:24:34.953Z,16.80
2018-07-05T09:27:02.276Z,17.17
2018-07-05T09:29:29.587Z,19.60
2018-07-05T09:31:56.923Z,19.67
2018-07-05T09:34:24.205Z,21.27
2018-07-05T09:36:51.556Z,20.87
2018-07-05T09:39:18.881Z,22.00
2018-07-05T09:41:46.174Z,22.57
2018-07-05T09:44:13.496Z,25.13
2018-07-05T09:46:40.810Z,22.03
2018-07-05T09:49:08.126Z,25.67
2018-07-05T09:51:35.410Z,24.73
2018-07-05T09:54:02.769Z,28.67
2018-07-05T09:56:30.100Z,26.80
2018-07-05T09:58:57.463Z,21.10
2018-07-05T10:01:24.797Z,25.87
2018-07-05T10:03:52.158Z,25.97
2018-07-05T10:06:19.450Z,22.57
2018-07-05T10:08:46.756Z,24.50
2018-07-05T10:11:14.072Z,23.40
2018-07-05T10:13:41.634Z,24.67
2018-07-05T10:16:08.687Z,24.90
2018-07-05T10:18:35.984Z,22.53
2018-07-05T10:21:03.289Z,24.30
2018-07-05T10:23:30.632Z,22.67
2018-07-05T10:25:57.936Z,21.40
2018-07-05T10:28:25.256Z,26.33
2018-07-05T10:31:04.906Z,25.77
2018-07-05T10:33:45.188Z,24.57
2018-07-05T10:36:12.771Z,26.80
2018-07-05T10:38:40.165Z,27.30
2018-07-05T10:41:20.044Z,25.63
2018-07-05T10:44:00.039Z,26.73
2018-07-05T10:46:39.668Z,28.27
2018-07-05T10:49:19.505Z,24.60
2018-07-05T10:51:59.114Z,32.17
2018-07-05T10:54:38.829Z,34.83
2018-07-05T10:57:18.645Z,31.40
2018-07-05T10:59:58.364Z,34.37
2018-07-05T11:02:38.093Z,33.70
2018-07-05T11:05:17.940Z,31.40
2018-07-05T11:07:57.638Z,29.53
2018-07-05T11:10:37.475Z,34.70
2018-07-05T11:13:18.229Z,33.63
2018-07-05T11:15:58.155Z,29.43
2018-07-05T11:18:37.904Z,28.60
2018-07-05T11:21:17.537Z,29.80
2018-07-05T11:23:57.293Z,31.67
2018-07-05T11:26:36.946Z,28.93
2018-07-05T11:29:16.651Z,26.17
2018-07-05T11:31:56.251Z,27.07
2018-07-05T11:34:36.083Z,31.10
2018-07-05T11:37:15.682Z,28.93
2018-07-05T11:39:55.448Z,25.20
2018-07-05T11:42:35.357Z,25.77
2018-07-05T11:45:15.115Z,24.40
2018-07-05T11:47:55.095Z,23.97
2018-07-05T11:50:34.848Z,21.03
2018-07-05T11:53:14.698Z,24.13
2018-07-05T11:55:54.268Z,22.33
2018-07-05T11:58:34.191Z,22.63
2018-07-05T12:01:15.222Z,22.03
2018-07-05T12:03:55.277Z,20.63
2018-07-05T12:06:35.091Z,22.43
2018-07-05T12:09:15.101Z,18.67
2018-07-05T12:11:54.878Z,17.00
2018-07-05T12:14:34.737Z,16.00
2018-07-05T12:17:14.503Z,17.20
2018-07-05T12:19:54.205Z,14.70
2018-07-05T12:22:34.038Z,11.33
2018-07-05T12:25:13.570Z,13.23
2018-07-05T12:27:53.420Z,15.20
2018-07-05T12:30:34.145Z,15.13
2018-07-05T12:33:13.989Z,17.70
2018-07-05T12:35:53.667Z,18.23
2018-07-05T12:38:33.354Z,15.17
2018-07-05T12:41:13.004Z,15.37
2018-07-05T12:43:52.719Z,14.47
2018-07-05T12:46:32.419Z,16.80
2018-07-05T12:49:12.079Z,15.87
2018-07-05T12:51:52.011Z,18.17
2018-07-05T12:54:31.816Z,19.60
2018-07-05T12:57:11.505Z,19.63
2018-07-05T12:59:51.283Z,18.20
2018-07-05T13:02:30.951Z,17.87
2018-07-05T13:05:10.495Z,15.17
2018-07-05T13:07:50.125Z,15.80
2018-07-05T13:10:30.784Z,12.70
2018-07-05T13:13:10.618Z,14.90
2018-07-05T13:15:50.385Z,13.90
2018-07-05T13:18:30.021Z,14.67
2018-07-05T13:21:09.519Z,11.70
2018-07-05T13:23:49.346Z,13.50
2018-07-05T13:26:29.139Z,11.00
2018-07-05T13:29:09.042Z,12.70
2018-07-05T13:31:48.712Z,9.70
2018-07-05T13:34:28.422Z,9.43
2018-07-05T13:37:07.968Z,8.60
2018-07-05T13:39:47.827Z,12.17
2018-07-05T13:42:27.471Z,8.63
2018-07-05T13:45:07.144Z,8.40
2018-07-05T13:47:46.939Z,8.87
2018-07-05T13:50:26.684Z,9.17
2018-07-05T13:53:06.468Z,8.40
2018-07-05T13:55:46.144Z,7.13
2018-07-05T13:58:26.053Z,7.20
2018-07-05T14:01:05.684Z,8.40
2018-07-05T14:03:45.451Z,9.33
2018-07-05T14:06:25.376Z,9.03
2018-07-05T14:09:05.056Z,7.93
2018-07-05T14:11:44.744Z,7.30
2018-07-05T14:14:24.475Z,7.77
2018-07-05T14:17:04.432Z,8.87
2018-07-05T14:19:44.128Z,8.80
2018-07-05T14:22:23.656Z,8.77
2018-07-05T14:25:03.449Z,5.93
2018-07-05T14:27:43.368Z,7.03
2018-07-05T14:30:23.136Z,6.90
2018-07-05T14:33:02.726Z,6.70
2018-07-05T14:35:42.546Z,7.17
2018-07-05T14:38:22.182Z,7.07
2018-07-05T14:41:01.890Z,6.13
2018-07-05T14:43:43.340Z,8.60
2018-07-05T14:46:23.032Z,9.20
2018-07-05T14:49:02.676Z,8.00
2018-07-05T14:51:42.860Z,7.10
2018-07-05T14:54:22.509Z,7.00
2018-07-05T14:57:02.134Z,8.10
2018-07-05T14:59:41.924Z,7.23
2018-07-05T15:02:22.580Z,7.83
2018-07-05T15:05:02.283Z,7.30
2018-07-05T15:07:42.042Z,7.13
2018-07-05T15:10:21.759Z,6.97
2018-07-05T15:13:01.503Z,6.80
2018-07-05T15:15:41.219Z,6.70
2018-07-05T15:18:20.849Z,7.90
2018-07-05T15:21:02.096Z,8.10
2018-07-05T15:23:41.713Z,7.90
2018-07-05T15:26:22.321Z,6.80
2018-07-05T15:29:02.019Z,6.70
2018-07-05T15:31:41.847Z,7.40
2018-07-05T15:34:21.574Z,7.30
2018-07-05T15:37:01.347Z,6.17
2018-07-05T15:39:41.191Z,7.47
2018-07-05T15:42:20.743Z,7.43
2018-07-05T15:45:00.589Z,7.20
2018-07-05T15:47:40.535Z,8.07
2018-07-05T15:50:20.449Z,7.00
2018-07-05T15:53:00.223Z,8.43
2018-07-05T15:55:40.167Z,6.70
2018-07-05T15:58:19.923Z,7.47
2018-07-05T16:00:59.590Z,6.90
2018-07-05T16:03:39.455Z,7.03
2018-07-05T16:06:19.025Z,6.30
2018-07-05T16:08:58.727Z,6.30
2018-07-05T16:11:38.431Z,6.70
2018-07-05T16:14:18.965Z,6.50
2018-07-05T16:16:58.649Z,6.37
2018-07-05T16:19:38.253Z,6.90
2018-07-05T16:22:18.083Z,6.50
2018-07-05T16:24:57.841Z,6.27
2018-07-05T16:27:37.736Z,6.50
2018-07-05T16:30:17.751Z,5.00
2018-07-05T16:32:57.940Z,5.63
2018-07-05T16:35:38.086Z,6.50
2018-07-05T16:38:18.052Z,5.90
2018-07-05T16:40:57.992Z,5.50
2018-07-05T16:43:38.486Z,7.10
2018-07-05T16:46:18.359Z,6.60
2018-07-05T16:48:58.227Z,10.50
2018-07-05T16:51:37.836Z,6.03
2018-07-05T16:54:17.684Z,5.23
2018-07-05T16:56:57.237Z,9.43
2018-07-05T16:59:36.927Z,10.70
2018-07-05T17:02:16.597Z,5.97
2018-07-05T17:04:56.539Z,7.90
2018-07-05T17:07:36.284Z,6.77
2018-07-05T17:10:16.114Z,7.00
2018-07-05T17:12:56.081Z,8.63
2018-07-05T17:15:35.810Z,7.20
2018-07-05T17:18:15.435Z,6.00
2018-07-05T17:20:55.198Z,5.80
2018-07-05T17:23:35.096Z,5.10
2018-07-05T17:26:14.808Z,5.63
2018-07-05T17:28:54.575Z,7.13
2018-07-05T17:31:34.192Z,5.97
2018-07-05T17:34:13.827Z,5.57
2018-07-05T17:36:53.866Z,5.83
2018-07-05T17:39:33.476Z,13.47
2018-07-05T17:42:13.266Z,8.17
2018-07-05T17:44:52.904Z,7.73
2018-07-05T17:47:32.678Z,5.30
2018-07-05T17:50:12.367Z,4.87
2018-07-05T17:52:52.136Z,6.43
2018-07-05T17:55:31.788Z,5.23
2018-07-05T17:58:11.412Z,5.60
2018-07-05T18:00:51.186Z,5.40
2018-07-05T18:03:30.952Z,5.27
2018-07-05T18:06:10.921Z,7.20
2018-07-05T18:08:50.939Z,9.30
2018-07-05T18:11:30.716Z,5.27
2018-07-05T18:14:10.556Z,5.40
2018-07-05T18:16:50.388Z,6.17
2018-07-05T18:19:30.199Z,10.03
2018-07-05T18:22:10.036Z,7.20
2018-07-05T18:24:49.832Z,6.37
2018-07-05T18:27:29.472Z,5.97
2018-07-05T18:30:09.290Z,18.00
2018-07-05T18:32:48.964Z,7.17
2018-07-05T18:35:29.977Z,7.20
2018-07-05T18:38:09.938Z,7.83
2018-07-05T18:40:49.802Z,5.47
2018-07-05T18:43:29.532Z,7.07
2018-07-05T18:46:09.427Z,8.90
2018-07-05T18:48:49.111Z,17.50
2018-07-05T18:51:28.777Z,10.00
2018-07-05T18:54:08.521Z,7.80
2018-07-05T18:56:48.297Z,10.23
2018-07-05T18:59:27.804Z,11.10
2018-07-05T19:02:07.490Z,8.87
2018-07-05T19:04:47.225Z,11.40
2018-07-05T19:07:26.828Z,12.27
2018-07-05T19:10:06.419Z,12.50
2018-07-05T19:12:46.225Z,8.00
2018-07-05T19:15:25.843Z,6.30
2018-07-05T19:18:05.469Z,6.03
2018-07-05T19:20:45.304Z,8.30
2018-07-05T19:23:24.926Z,5.23
2018-07-05T19:26:04.603Z,4.53
2018-07-05T19:28:44.221Z,6.87
2018-07-05T19:31:25.193Z,7.77
2018-07-05T19:34:04.786Z,5.87
2018-07-05T19:36:44.391Z,6.60
2018-07-05T19:39:24.120Z,11.10
2018-07-05T19:42:03.750Z,6.90
2018-07-05T19:44:43.685Z,8.60
2018-07-05T19:47:23.607Z,7.33
2018-07-05T19:50:03.375Z,4.50
2018-07-05T19:52:43.419Z,4.60
2018-07-05T19:55:23.187Z,7.60
2018-07-05T19:58:02.929Z,7.90
2018-07-05T20:00:42.770Z,7.70
2018-07-05T20:03:22.687Z,16.10
2018-07-05T20:06:02.353Z,8.13
2018-07-05T20:08:42.036Z,6.37
2018-07-05T20:11:21.895Z,5.00
2018-07-05T20:14:01.471Z,5.70
2018-07-05T20:16:41.211Z,22.40
2018-07-05T20:19:20.876Z,10.90
2018-07-05T20:22:00.609Z,9.50
2018-07-05T20:24:40.311Z,14.50
2018-07-05T20:27:20.198Z,9.77
2018-07-05T20:29:59.910Z,9.23
2018-07-05T20:32:39.532Z,13.07
2018-07-05T20:35:19.262Z,9.57
2018-07-05T20:37:58.951Z,10.70
2018-07-05T20:40:38.621Z,8.30
2018-07-05T20:43:18.809Z,10.20
2018-07-05T20:45:58.410Z,35.07
2018-07-05T20:48:38.131Z,9.33
2018-07-05T20:51:17.934Z,12.00
2018-07-05T20:53:57.705Z,14.67
2018-07-05T20:56:37.301Z,10.13
2018-07-05T20:59:16.977Z,11.30
2018-07-05T21:01:56.882Z,26.30
2018-07-05T21:04:36.841Z,6.80
2018-07-05T21:07:16.522Z,12.30
2018-07-05T21:09:56.323Z,7.00
2018-07-05T21:12:35.976Z,7.17
2018-07-05T21:15:15.697Z,8.70
2018-07-05T21:17:55.988Z,4.10
2018-07-05T21:20:35.924Z,4.93
2018-07-05T21:23:15.885Z,4.23
2018-07-05T21:25:55.935Z,3.70
2018-07-05T21:28:35.810Z,4.03
2018-07-05T21:31:15.396Z,10.17
2018-07-05T21:33:55.178Z,8.40
2018-07-05T21:36:34.952Z,12.43
2018-07-05T21:39:14.620Z,8.80
2018-07-05T21:41:54.445Z,4.40
2018-07-05T21:44:34.013Z,6.13
2018-07-05T21:47:13.997Z,6.53
2018-07-05T21:49:53.621Z,4.83
2018-07-05T21:52:33.429Z,10.43
2018-07-05T21:55:13.203Z,6.17
2018-07-05T21:57:52.759Z,3.90
2018-07-05T22:00:32.445Z,3.90
2018-07-05T22:03:12.105Z,3.20
2018-07-05T22:05:51.860Z,3.07
2018-07-05T22:08:31.659Z,2.90
2018-07-05T22:11:11.271Z,2.87
2018-07-05T22:13:51.127Z,3.10
2018-07-05T22:16:30.897Z,7.53
2018-07-05T22:19:16.093Z,7.90
2018-07-05T22:22:01.399Z,5.07
2018-07-05T22:24:46.753Z,4.87
2018-07-05T22:27:32.025Z,4.10
2018-07-05T22:30:17.143Z,3.17
2018-07-05T22:32:56.960Z,2.37
2018-07-05T22:35:36.573Z,4.20
2018-07-05T22:38:16.411Z,4.13
2018-07-05T22:40:56.111Z,3.40
2018-07-05T22:43:35.913Z,2.83
2018-07-05T22:46:15.547Z,2.70
2018-07-05T22:48:55.365Z,2.60
2018-07-05T22:51:35.213Z,3.93
2018-07-05T22:54:15.044Z,6.97
2018-07-05T22:56:54.638Z,11.63
2018-07-05T23:25:12.107Z,2.70
2018-07-05T23:27:51.773Z,3.43
2018-07-05T23:30:31.525Z,4.10
2018-07-05T23:36:02.010Z,3.47
2018-07-05T23:38:41.791Z,4.27
2018-07-05T23:41:21.515Z,3.43
2018-07-05T23:44:01.256Z,35.40
2018-07-05T23:46:41.050Z,33.37
2018-07-05T23:49:20.824Z,8.00
2018-07-05T23:52:00.512Z,4.30
2018-07-05T23:54:40.362Z,4.10
2018-07-05T23:57:19.977Z,3.17
2018-07-05T23:59:59.756Z,3.43
